Time;durP1;ratioP1;P1;durP2;ratioP2;P2;SDS_P1;SDS_P2;PMS_P1;PMS_P2;Temp;Humidity;BMP_temperature;BMP_pressure;BME280_temperature;BME280_humidity;BME280_pressure;Samples;Min_cycle;Max_cycle;Signal;HPM_P1;HPM_P2
2023/03/17 00:01:54;;;;;;;46.15;18.83;;;;;;;;;;8465494;28;20047;-81
2023/03/17 00:06:00;;;;;;;38.22;18.05;;;;;;;;;;8465182;28;20384;-85
2023/03/17 00:10:03;;;;;;;41.05;18.25;;;;;;;;;;8465104;28;20174;-82
2023/03/17 00:14:07;;;;;;;51.75;20.20;;;;;;;;;;8463188;28;20055;-79
2023/03/17 00:18:13;;;;;;;42.65;16.65;;;;;;;;;;8464484;28;20058;-84
2023/03/17 00:22:21;;;;;;;42.20;17.98;;;;;;;;;;8453677;28;20051;-80
2023/03/17 00:26:24;;;;;;;43.45;15.65;;;;;;;;;;8453327;28;20437;-80
2023/03/17 00:30:29;;;;;;;43.25;17.90;;;;;;;;;;8448844;28;20396;-79
2023/03/17 00:34:33;;;;;;;43.00;16.92;;;;;;;;;;8453277;28;20051;-79
2023/03/17 00:38:36;;;;;;;46.05;16.48;;;;;;;;;;8462476;28;20052;-80
2023/03/17 00:42:39;;;;;;;33.70;14.82;;;;;;;;;;8443883;28;20073;-83
2023/03/17 00:46:45;;;;;;;44.97;16.88;;;;;;;;;;8463379;28;20050;-78
2023/03/17 00:50:50;;;;;;;37.95;17.15;;;;;;;;;;8463644;28;20118;-83
2023/03/17 00:54:53;;;;;;;33.60;15.10;;;;;;;;;;8461054;28;20538;-83
2023/03/17 00:58:56;;;;;;;40.78;14.95;;;;;;;;;;8453216;28;20047;-79
2023/03/17 01:03:00;;;;;;;29.23;15.77;;;;;;;;;;8463436;28;20055;-79
2023/03/17 01:07:03;;;;;;;41.17;16.00;;;;;;;;;;8463209;28;20043;-79
2023/03/17 01:11:07;;;;;;;45.88;17.42;;;;;;;;;;8462433;28;20059;-80
2023/03/17 01:15:11;;;;;;;44.72;14.73;;;;;;;;;;8462994;28;20040;-83
2023/03/17 01:19:15;;;;;;;38.15;15.75;;;;;;;;;;8463577;28;20511;-86
2023/03/17 01:23:18;;;;;;;44.95;17.40;;;;;;;;;;8449420;28;20062;-84
2023/03/17 01:27:21;;;;;;;30.45;12.95;;;;;;;;;;8462660;28;20096;-78
2023/03/17 01:31:25;;;;;;;37.38;14.70;;;;;;;;;;8462520;28;20423;-80
2023/03/17 01:35:30;;;;;;;32.90;14.90;;;;;;;;;;8460851;28;20051;-79
2023/03/17 01:39:33;;;;;;;33.53;15.10;;;;;;;;;;8462666;28;20044;-80
2023/03/17 01:43:37;;;;;;;32.33;14.00;;;;;;;;;;8462632;28;20051;-79
2023/03/17 01:47:40;;;;;;;41.50;16.45;;;;;;;;;;8462574;28;20072;-81
2023/03/17 01:51:51;;;;;;;31.92;14.18;;;;;;;;;;8462738;28;20482;-80
2023/03/17 01:55:57;;;;;;;40.00;14.98;;;;;;;;;;8462238;28;20040;-79
2023/03/17 02:00:06;;;;;;;36.42;14.98;;;;;;;;;;8461975;28;20116;-82
2023/03/17 02:04:12;;;;;;;32.88;15.02;;;;;;;;;;8449358;28;20126;-82
2023/03/17 02:08:16;;;;;;;38.92;14.50;;;;;;;;;;8460498;28;20043;-84
2023/03/17 02:12:21;;;;;;;23.50;11.77;;;;;;;;;;8462792;28;20074;-79
2023/03/17 02:16:24;;;;;;;33.22;14.02;;;;;;;;;;8462045;28;20394;-79
2023/03/17 02:21:12;;;;;;;26.23;12.75;;;;;;;;;;8462151;28;20081;-80
2023/03/17 02:25:18;;;;;;;28.90;13.73;;;;;;;;;;8461910;28;20039;-85
2023/03/17 02:29:22;;;;;;;35.38;12.75;;;;;;;;;;8435393;28;20130;-86
2023/03/17 02:33:26;;;;;;;27.55;12.00;;;;;;;;;;8461700;28;20054;-80
2023/03/17 02:37:29;;;;;;;33.78;13.38;;;;;;;;;;8461400;28;20044;-80
2023/03/17 02:41:34;;;;;;;31.90;12.13;;;;;;;;;;8461505;28;20046;-83
2023/03/17 02:45:37;;;;;;;31.88;12.15;;;;;;;;;;8437421;28;20410;-80
2023/03/17 02:49:41;;;;;;;26.63;11.50;;;;;;;;;;8467131;28;20483;-78
2023/03/17 02:53:44;;;;;;;26.30;11.57;;;;;;;;;;8467573;28;20051;-86
2023/03/17 02:57:48;;;;;;;19.98;9.07;;;;;;;;;;8467366;28;20051;-82
2023/03/17 03:01:51;;;;;;;21.80;9.68;;;;;;;;;;8468129;28;20122;-77
2023/03/17 03:05:54;;;;;;;20.33;10.55;;;;;;;;;;8467225;28;20050;-78
2023/03/17 03:09:57;;;;;;;19.35;9.55;;;;;;;;;;8421030;28;20054;-80
2023/03/17 03:14:03;;;;;;;24.55;11.10;;;;;;;;;;8426160;28;20053;-83
2023/03/17 03:18:06;;;;;;;22.30;10.02;;;;;;;;;;8427204;28;20052;-81
2023/03/17 03:22:09;;;;;;;26.30;10.93;;;;;;;;;;8466483;28;20043;-81
2023/03/17 03:26:12;;;;;;;22.80;9.93;;;;;;;;;;8459114;28;20039;-83
2023/03/17 03:30:17;;;;;;;27.75;13.27;;;;;;;;;;8447028;28;20051;-83
2023/03/17 03:34:20;;;;;;;28.67;13.77;;;;;;;;;;8443909;28;20036;-82
2023/03/17 03:38:23;;;;;;;30.25;12.48;;;;;;;;;;8440397;28;20043;-84
2023/03/17 03:42:25;;;;;;;22.70;11.32;;;;;;;;;;8449925;28;20039;-80
2023/03/17 03:46:29;;;;;;;21.83;11.18;;;;;;;;;;8422279;28;20078;-81
2023/03/17 03:50:33;;;;;;;54.40;20.92;;;;;;;;;;8421845;28;20046;-84
2023/03/17 03:54:36;;;;;;;27.05;11.63;;;;;;;;;;8423688;28;20123;-84
2023/03/17 03:58:40;;;;;;;33.88;15.88;;;;;;;;;;8463373;28;20048;-81
2023/03/17 04:02:45;;;;;;;30.13;12.75;;;;;;;;;;8420906;28;20950;-86
2023/03/17 04:06:48;;;;;;;31.02;14.15;;;;;;;;;;8417393;28;20048;-80
2023/03/17 04:10:51;;;;;;;39.67;19.75;;;;;;;;;;8431541;28;20389;-80
2023/03/17 04:14:54;;;;;;;38.45;19.83;;;;;;;;;;8439375;28;20599;-82
2023/03/17 04:18:59;;;;;;;27.85;10.02;;;;;;;;;;8431552;28;20551;-83
2023/03/17 04:23:01;;;;;;;19.45;10.38;;;;;;;;;;8425471;28;20052;-88
2023/03/17 04:27:05;;;;;;;35.28;17.45;;;;;;;;;;8428215;28;20091;-82
2023/03/17 04:31:10;;;;;;;21.83;11.30;;;;;;;;;;8433886;28;20054;-79
2023/03/17 04:35:16;;;;;;;30.85;14.30;;;;;;;;;;8434022;28;20400;-82
2023/03/17 04:39:19;;;;;;;29.73;13.95;;;;;;;;;;8426333;28;20086;-87
2023/03/17 04:43:22;;;;;;;30.45;13.15;;;;;;;;;;8447538;28;20038;-81
2023/03/17 04:47:25;;;;;;;37.63;13.93;;;;;;;;;;8427812;28;20047;-81
2023/03/17 04:51:30;;;;;;;48.70;19.20;;;;;;;;;;8421298;28;20119;-83
2023/03/17 04:55:33;;;;;;;28.08;11.57;;;;;;;;;;8432715;28;20141;-80
2023/03/17 04:59:36;;;;;;;25.88;11.35;;;;;;;;;;8453107;28;20047;-82
2023/03/17 05:03:39;;;;;;;18.60;6.63;;;;;;;;;;8426528;28;20372;-80
2023/03/17 05:07:43;;;;;;;15.07;8.05;;;;;;;;;;8455108;28;20048;-85
2023/03/17 05:11:46;;;;;;;21.02;7.90;;;;;;;;;;8436227;28;20565;-86
2023/03/17 05:15:50;;;;;;;24.10;10.05;;;;;;;;;;8428710;28;20040;-82
2023/03/17 05:19:53;;;;;;;29.42;11.75;;;;;;;;;;8425683;28;20450;-81
2023/03/17 05:23:58;;;;;;;14.82;7.88;;;;;;;;;;8426895;28;20065;-82
2023/03/17 05:28:01;;;;;;;15.32;6.35;;;;;;;;;;8452751;28;20051;-81
2023/03/17 05:32:04;;;;;;;15.55;8.18;;;;;;;;;;8450160;28;20055;-82
2023/03/17 05:36:08;;;;;;;19.40;8.07;;;;;;;;;;8443365;28;20105;-87
2023/03/17 05:40:14;;;;;;;18.77;7.30;;;;;;;;;;8424373;28;20046;-81
2023/03/17 05:44:17;;;;;;;48.00;15.80;;;;;;;;;;8444389;28;20449;-83
2023/03/17 05:48:20;;;;;;;15.90;7.22;;;;;;;;;;8430403;28;20039;-83
2023/03/17 05:52:23;;;;;;;18.48;9.95;;;;;;;;;;8442344;28;20089;-81
2023/03/17 05:56:32;;;;;;;24.40;9.82;;;;;;;;;;8439743;28;20060;-89
2023/03/17 06:00:35;;;;;;;46.30;16.10;;;;;;;;;;8461483;28;20046;-86
2023/03/17 06:04:38;;;;;;;31.13;11.43;;;;;;;;;;8434816;28;20044;-81
2023/03/17 06:08:41;;;;;;;34.05;13.75;;;;;;;;;;8437468;28;20043;-81
2023/03/17 06:12:45;;;;;;;21.85;9.18;;;;;;;;;;8448375;28;20054;-83
2023/03/17 06:16:48;;;;;;;18.73;8.05;;;;;;;;;;8463027;28;20135;-82
2023/03/17 06:20:51;;;;;;;19.80;11.73;;;;;;;;;;8464741;28;20043;-81
2023/03/17 06:24:54;;;;;;;13.38;8.43;;;;;;;;;;8469275;28;20050;-82
2023/03/17 06:28:59;;;;;;;62.67;24.00;;;;;;;;;;8468996;28;20692;-82
2023/03/17 06:33:02;;;;;;;40.92;17.75;;;;;;;;;;8469147;28;20066;-87
2023/03/17 06:37:05;;;;;;;38.85;15.60;;;;;;;;;;8468465;28;20074;-82
2023/03/17 06:41:08;;;;;;;14.05;7.90;;;;;;;;;;8453149;28;20656;-89
2023/03/17 06:45:13;;;;;;;15.48;7.47;;;;;;;;;;8434604;28;20047;-82
2023/03/17 06:49:16;;;;;;;17.00;9.80;;;;;;;;;;8459557;28;20048;-82
2023/03/17 06:53:19;;;;;;;19.35;13.10;;;;;;;;;;8467248;28;20454;-83
2023/03/17 06:57:22;;;;;;;19.08;14.70;;;;;;;;;;8453591;28;20298;-84
2023/03/17 07:01:27;;;;;;;23.25;15.07;;;;;;;;;;8434213;28;20048;-93
2023/03/17 07:05:30;;;;;;;36.40;25.65;;;;;;;;;;8467666;28;20673;-92
2023/03/17 07:09:34;;;;;;;19.40;7.47;;;;;;;;;;8467779;28;20039;-90
2023/03/17 07:13:38;;;;;;;17.08;8.35;;;;;;;;;;8444098;28;20147;-83
2023/03/17 07:17:42;;;;;;;56.75;33.35;;;;;;;;;;8447361;28;20040;-85
2023/03/17 07:21:45;;;;;;;26.60;15.75;;;;;;;;;;8449792;28;20392;-91
2023/03/17 07:25:48;;;;;;;20.50;9.70;;;;;;;;;;8466615;28;20039;-90
2023/03/17 07:29:51;;;;;;;13.48;6.25;;;;;;;;;;8466554;28;20093;-81
2023/03/17 07:33:56;;;;;;;14.35;8.60;;;;;;;;;;8465138;28;20043;-91
2023/03/17 07:37:59;;;;;;;12.02;5.20;;;;;;;;;;8466492;28;20051;-82
2023/03/17 07:42:03;;;;;;;10.80;4.95;;;;;;;;;;8467187;28;20044;-80
2023/03/17 07:46:07;;;;;;;11.98;4.55;;;;;;;;;;8467222;28;20047;-80
2023/03/17 07:50:12;;;;;;;9.00;4.57;;;;;;;;;;8466958;28;20065;-86
2023/03/17 07:54:15;;;;;;;13.30;4.45;;;;;;;;;;8466880;28;20071;-82
2023/03/17 07:58:19;;;;;;;13.93;7.55;;;;;;;;;;8467909;28;20437;-81
2023/03/17 08:02:21;;;;;;;9.15;4.47;;;;;;;;;;8467235;28;20491;-83
2023/03/17 08:06:26;;;;;;;17.75;12.65;;;;;;;;;;8466520;28;20044;-92
2023/03/17 08:10:29;;;;;;;8.38;3.75;;;;;;;;;;8463760;28;20062;-81
2023/03/17 08:14:32;;;;;;;7.70;3.60;;;;;;;;;;8466370;28;20514;-81
2023/03/17 08:18:35;;;;;;;9.48;3.35;;;;;;;;;;8466418;28;20043;-87
2023/03/17 08:22:40;;;;;;;13.05;6.22;;;;;;;;;;8466575;27;20114;-79
2023/03/17 08:26:43;;;;;;;7.18;3.50;;;;;;;;;;8466284;28;20054;-83
2023/03/17 08:30:47;;;;;;;8.13;3.33;;;;;;;;;;8443577;28;20039;-94
2023/03/17 08:34:53;;;;;;;10.07;4.72;;;;;;;;;;8455561;28;20096;-89
2023/03/17 08:38:58;;;;;;;8.23;3.20;;;;;;;;;;8429925;28;20047;-89
2023/03/17 08:43:01;;;;;;;11.02;3.97;;;;;;;;;;8458819;27;20088;-90
2023/03/17 08:47:04;;;;;;;9.88;4.32;;;;;;;;;;8452687;28;20071;-81
2023/03/17 08:51:07;;;;;;;9.55;3.55;;;;;;;;;;8446803;28;20449;-94
2023/03/17 08:55:14;;;;;;;10.23;4.30;;;;;;;;;;8416706;28;20537;-82
2023/03/17 08:59:17;;;;;;;13.68;5.20;;;;;;;;;;8424330;28;20453;-82
2023/03/17 09:03:22;;;;;;;12.23;7.55;;;;;;;;;;8401857;28;20126;-86
2023/03/17 09:07:25;;;;;;;11.70;5.32;;;;;;;;;;8420828;28;20040;-80
2023/03/17 09:11:31;;;;;;;8.25;4.43;;;;;;;;;;8433309;28;20090;-80
2023/03/17 09:15:35;;;;;;;13.15;5.78;;;;;;;;;;8431025;28;20044;-84
2023/03/17 09:19:39;;;;;;;10.40;4.90;;;;;;;;;;8436944;28;20051;-85
2023/03/17 09:23:42;;;;;;;11.57;5.18;;;;;;;;;;8434371;28;20060;-91
2023/03/17 09:27:47;;;;;;;12.13;5.38;;;;;;;;;;8433089;28;20122;-86
2023/03/17 09:31:50;;;;;;;13.40;8.32;;;;;;;;;;8405354;28;20044;-85
2023/03/17 09:35:55;;;;;;;10.55;4.45;;;;;;;;;;8430742;28;20055;-86
2023/03/17 09:39:59;;;;;;;14.25;5.50;;;;;;;;;;8430202;28;20670;-81
2023/03/17 09:44:17;;;;;;;11.18;5.47;;;;;;;;;;8439692;28;20200;-84
2023/03/17 09:48:32;;;;;;;10.57;4.55;;;;;;;;;;8439629;28;20056;-81
2023/03/17 09:52:37;;;;;;;11.23;5.00;;;;;;;;;;8440329;28;20044;-82
2023/03/17 09:56:43;;;;;;;11.20;5.32;;;;;;;;;;8445443;28;20047;-82
2023/03/17 10:00:48;;;;;;;9.20;5.22;;;;;;;;;;8454382;28;20092;-83
2023/03/17 10:04:51;;;;;;;18.75;12.57;;;;;;;;;;8442057;28;20136;-81
2023/03/17 10:09:01;;;;;;;11.23;5.63;;;;;;;;;;8425787;28;20049;-82
2023/03/17 10:13:10;;;;;;;10.48;4.32;;;;;;;;;;8425146;28;20056;-85
2023/03/17 10:17:19;;;;;;;12.25;4.38;;;;;;;;;;8416614;28;20048;-81
2023/03/17 10:21:27;;;;;;;6.28;3.50;;;;;;;;;;8427547;28;20071;-81
2023/03/17 10:25:32;;;;;;;8.40;4.30;;;;;;;;;;8429850;28;20085;-84
2023/03/17 10:29:35;;;;;;;35.72;25.50;;;;;;;;;;8418486;28;20214;-80
2023/03/17 10:33:39;;;;;;;12.55;6.57;;;;;;;;;;8420508;28;20131;-79
2023/03/17 10:37:43;;;;;;;9.68;4.03;;;;;;;;;;8419475;28;20461;-84
2023/03/17 10:41:56;;;;;;;8.57;3.83;;;;;;;;;;8425444;28;20765;-81
2023/03/17 10:46:01;;;;;;;11.13;4.30;;;;;;;;;;8420734;28;20051;-84
2023/03/17 10:50:23;;;;;;;9.98;4.97;;;;;;;;;;8414458;28;20053;-84
2023/03/17 10:54:27;;;;;;;10.68;5.22;;;;;;;;;;8418045;28;20064;-89
2023/03/17 10:58:37;;;;;;;10.70;5.25;;;;;;;;;;8420278;28;20044;-90
2023/03/17 11:02:47;;;;;;;12.70;3.97;;;;;;;;;;8430509;28;20058;-83
2023/03/17 11:06:52;;;;;;;7.30;2.97;;;;;;;;;;8433470;28;20044;-88
2023/03/17 11:10:57;;;;;;;10.93;3.88;;;;;;;;;;8434785;28;20043;-84
2023/03/17 11:15:02;;;;;;;9.80;5.13;;;;;;;;;;8430182;28;20105;-81
2023/03/17 11:19:10;;;;;;;6.70;3.17;;;;;;;;;;8443435;28;20086;-81
2023/03/17 11:23:26;;;;;;;9.57;3.65;;;;;;;;;;8429904;28;20135;-82
2023/03/17 11:27:32;;;;;;;15.05;6.30;;;;;;;;;;8421420;28;20066;-87
2023/03/17 11:31:42;;;;;;;5.88;3.40;;;;;;;;;;8453972;28;20043;-91
2023/03/17 11:35:53;;;;;;;10.98;5.70;;;;;;;;;;8468029;28;20051;-80
2023/03/17 11:40:07;;;;;;;7.93;4.23;;;;;;;;;;8434826;28;20047;-93
2023/03/17 11:44:33;;;;;;;18.98;9.98;;;;;;;;;;8465486;28;20122;-92
2023/03/17 11:48:46;;;;;;;12.13;5.18;;;;;;;;;;8468448;28;20040;-92
2023/03/17 11:53:01;;;;;;;12.55;3.75;;;;;;;;;;8409727;28;20072;-88
2023/03/17 11:57:11;;;;;;;8.02;3.53;;;;;;;;;;8437134;28;20054;-93
2023/03/17 12:01:18;;;;;;;6.47;3.00;;;;;;;;;;8468492;28;20170;-90
2023/03/17 12:05:25;;;;;;;11.85;4.30;;;;;;;;;;8467403;28;20050;-86
2023/03/17 12:09:32;;;;;;;9.05;3.50;;;;;;;;;;8467772;28;20048;-91
2023/03/17 12:13:41;;;;;;;9.90;3.97;;;;;;;;;;8467327;28;20555;-84
2023/03/17 12:17:51;;;;;;;14.13;6.45;;;;;;;;;;8466828;28;20192;-93
2023/03/17 12:21:58;;;;;;;11.35;3.65;;;;;;;;;;8442018;28;20075;-94
2023/03/17 12:26:06;;;;;;;12.25;4.50;;;;;;;;;;8461082;28;20544;-84
2023/03/17 12:30:23;;;;;;;7.47;3.63;;;;;;;;;;8447496;28;20404;-83
2023/03/17 12:34:33;;;;;;;9.05;3.92;;;;;;;;;;8455710;28;20050;-80
2023/03/17 12:38:41;;;;;;;13.10;6.80;;;;;;;;;;8466029;28;20527;-90
2023/03/17 12:42:51;;;;;;;12.57;5.57;;;;;;;;;;8465441;28;20065;-79
2023/03/17 12:47:12;;;;;;;8.82;4.28;;;;;;;;;;8464809;28;20047;-80
2023/03/17 12:51:34;;;;;;;17.65;7.40;;;;;;;;;;8464903;28;20134;-79
2023/03/17 12:55:38;;;;;;;31.88;12.88;;;;;;;;;;8448926;28;20040;-79
2023/03/17 12:59:44;;;;;;;27.42;11.82;;;;;;;;;;8425651;28;20470;-80
2023/03/17 13:04:02;;;;;;;13.57;5.35;;;;;;;;;;8415230;28;20035;-80
2023/03/17 13:08:09;;;;;;;23.33;12.00;;;;;;;;;;8421895;28;20048;-81
2023/03/17 13:12:48;;;;;;;11.55;5.38;;;;;;;;;;8419510;28;20797;-80
2023/03/17 13:16:52;;;;;;;14.13;7.20;;;;;;;;;;8417257;28;20055;-80
2023/03/17 13:21:13;;;;;;;13.88;6.32;;;;;;;;;;8403079;28;21252;-80
2023/03/17 13:25:31;;;;;;;13.10;5.53;;;;;;;;;;8419797;28;20040;-81
2023/03/17 13:29:46;;;;;;;21.45;6.20;;;;;;;;;;8413463;28;20476;-82
2023/03/17 13:33:55;;;;;;;9.90;5.10;;;;;;;;;;8419094;28;20043;-80
2023/03/17 13:38:32;;;;;;;13.57;4.63;;;;;;;;;;8424319;28;20495;-80
2023/03/17 13:43:03;;;;;;;20.17;6.95;;;;;;;;;;8377719;28;20052;-81
2023/03/17 13:47:25;;;;;;;18.23;9.52;;;;;;;;;;8411772;28;20044;-80
2023/03/17 13:51:34;;;;;;;14.10;5.45;;;;;;;;;;8421593;28;20074;-83
2023/03/17 13:55:42;;;;;;;12.10;4.78;;;;;;;;;;8414063;28;20478;-79
2023/03/17 14:00:02;;;;;;;9.77;3.78;;;;;;;;;;8419177;28;20043;-81
2023/03/17 14:04:12;;;;;;;8.95;3.90;;;;;;;;;;8420415;28;20571;-81
2023/03/17 14:08:20;;;;;;;8.65;3.75;;;;;;;;;;8437723;28;20040;-80
2023/03/17 14:12:31;;;;;;;10.73;4.32;;;;;;;;;;8432444;28;20130;-82
2023/03/17 14:16:37;;;;;;;12.48;5.40;;;;;;;;;;8460870;28;20048;-80
2023/03/17 14:20:40;;;;;;;12.43;5.38;;;;;;;;;;8462896;28;20039;-92
2023/03/17 14:24:43;;;;;;;9.90;4.20;;;;;;;;;;8463919;28;20460;-79
2023/03/17 14:28:48;;;;;;;6.97;3.30;;;;;;;;;;8449677;28;20130;-80
2023/03/17 14:32:58;;;;;;;8.70;4.25;;;;;;;;;;8450099;28;20131;-82
2023/03/17 14:37:03;;;;;;;10.55;5.03;;;;;;;;;;8462962;28;20050;-84
2023/03/17 14:41:16;;;;;;;10.02;5.65;;;;;;;;;;8463748;28;20043;-79
2023/03/17 14:45:27;;;;;;;10.60;4.78;;;;;;;;;;8468300;28;20086;-79
2023/03/17 14:49:32;;;;;;;8.85;4.43;;;;;;;;;;8469446;28;20047;-90
2023/03/17 14:53:39;;;;;;;9.43;4.13;;;;;;;;;;8469091;28;20471;-81
2023/03/17 14:57:42;;;;;;;11.55;4.82;;;;;;;;;;8428054;28;20052;-82
2023/03/17 15:01:48;;;;;;;8.77;3.75;;;;;;;;;;8415024;28;20051;-85
2023/03/17 15:05:51;;;;;;;9.52;4.70;;;;;;;;;;8424862;28;20040;-83
2023/03/17 15:10:00;;;;;;;10.10;4.53;;;;;;;;;;8443142;28;20052;-78
2023/03/17 15:14:13;;;;;;;12.88;5.40;;;;;;;;;;8431810;28;20075;-81
2023/03/17 15:18:20;;;;;;;10.73;4.57;;;;;;;;;;8429319;28;20043;-82
2023/03/17 15:22:25;;;;;;;11.48;4.57;;;;;;;;;;8442597;28;20052;-79
2023/03/17 15:26:31;;;;;;;11.90;5.40;;;;;;;;;;8429461;28;20743;-81
2023/03/17 15:30:34;;;;;;;11.70;5.15;;;;;;;;;;8428464;28;20089;-80
2023/03/17 15:34:38;;;;;;;13.57;5.82;;;;;;;;;;8429194;28;20412;-81
2023/03/17 15:38:42;;;;;;;8.18;4.05;;;;;;;;;;8428108;28;20036;-81
2023/03/17 15:42:46;;;;;;;11.52;4.72;;;;;;;;;;8428274;28;20048;-81
2023/03/17 15:46:49;;;;;;;6.75;3.70;;;;;;;;;;8428156;28;20040;-81
2023/03/17 15:50:56;;;;;;;26.65;15.18;;;;;;;;;;8415552;28;20056;-79
2023/03/17 15:55:00;;;;;;;19.58;8.95;;;;;;;;;;8403353;28;20052;-80
2023/03/17 15:59:03;;;;;;;11.38;5.63;;;;;;;;;;8421929;28;20048;-79
2023/03/17 16:03:15;;;;;;;9.70;3.75;;;;;;;;;;8428278;28;20048;-80
2023/03/17 16:07:20;;;;;;;11.40;4.72;;;;;;;;;;8406002;28;20088;-82
2023/03/17 16:11:28;;;;;;;13.45;7.90;;;;;;;;;;8427447;28;20507;-80
2023/03/17 16:15:34;;;;;;;24.50;17.83;;;;;;;;;;8427622;28;20055;-80
2023/03/17 16:19:37;;;;;;;27.27;12.23;;;;;;;;;;8427524;28;20044;-81
2023/03/17 16:23:42;;;;;;;29.13;13.25;;;;;;;;;;8414879;28;20131;-80
2023/03/17 16:27:45;;;;;;;91.00;33.70;;;;;;;;;;8421518;28;20473;-80
2023/03/17 16:31:49;;;;;;;256.98;74.80;;;;;;;;;;8417505;28;20055;-80
2023/03/17 16:35:54;;;;;;;108.35;38.30;;;;;;;;;;8415772;28;20420;-84
2023/03/17 16:39:59;;;;;;;100.68;38.65;;;;;;;;;;8439692;28;20048;-79
2023/03/17 16:44:05;;;;;;;49.83;21.77;;;;;;;;;;8410453;28;20184;-81
2023/03/17 16:48:13;;;;;;;42.25;22.05;;;;;;;;;;8413831;28;20569;-80
2023/03/17 16:52:17;;;;;;;36.15;23.48;;;;;;;;;;8427595;28;20064;-86
2023/03/17 16:56:24;;;;;;;13.50;7.47;;;;;;;;;;8430715;28;20044;-88
2023/03/17 17:00:30;;;;;;;15.20;8.70;;;;;;;;;;8409906;28;20048;-80
2023/03/17 17:04:37;;;;;;;15.02;8.80;;;;;;;;;;8419620;28;20079;-83
2023/03/17 17:08:42;;;;;;;15.57;6.20;;;;;;;;;;8420322;28;20823;-83
2023/03/17 17:12:48;;;;;;;29.73;13.68;;;;;;;;;;8420691;28;20060;-81
2023/03/17 17:16:51;;;;;;;34.50;14.30;;;;;;;;;;8404496;28;20048;-87
2023/03/17 17:20:56;;;;;;;36.42;16.55;;;;;;;;;;8414722;28;20044;-80
2023/03/17 17:24:59;;;;;;;37.88;17.95;;;;;;;;;;8423331;28;20062;-81
2023/03/17 17:29:20;;;;;;;23.00;9.13;;;;;;;;;;8442837;28;20147;-87
2023/03/17 17:33:40;;;;;;;29.58;12.98;;;;;;;;;;8456119;28;20047;-87
2023/03/17 17:37:52;;;;;;;152.52;53.72;;;;;;;;;;8418963;28;20050;-79
2023/03/17 17:42:10;;;;;;;90.47;34.70;;;;;;;;;;8429519;28;20048;-80
2023/03/17 17:46:31;;;;;;;75.40;27.30;;;;;;;;;;8425017;28;20048;-84
2023/03/17 17:50:43;;;;;;;24.60;11.25;;;;;;;;;;8428756;28;20052;-81
2023/03/17 17:54:57;;;;;;;59.58;25.15;;;;;;;;;;8426346;28;20048;-79
2023/03/17 17:59:04;;;;;;;42.10;17.70;;;;;;;;;;8438639;28;20575;-85
2023/03/17 18:03:24;;;;;;;24.70;12.32;;;;;;;;;;8376394;28;20069;-85
2023/03/17 18:07:29;;;;;;;25.27;10.60;;;;;;;;;;8397552;28;20048;-83
2023/03/17 18:11:37;;;;;;;22.45;8.15;;;;;;;;;;8418332;28;20431;-87
2023/03/17 18:15:46;;;;;;;26.98;11.68;;;;;;;;;;8434391;28;20047;-80
2023/03/17 18:19:53;;;;;;;19.33;8.10;;;;;;;;;;8443022;28;20614;-86
2023/03/17 18:23:57;;;;;;;21.77;9.38;;;;;;;;;;8438771;28;20055;-85
2023/03/17 18:28:05;;;;;;;23.83;10.02;;;;;;;;;;8425490;28;20135;-87
2023/03/17 18:32:13;;;;;;;23.60;8.73;;;;;;;;;;8418431;28;20048;-84
2023/03/17 18:36:27;;;;;;;25.45;10.90;;;;;;;;;;8425233;28;20411;-82
2023/03/17 18:40:32;;;;;;;24.75;9.35;;;;;;;;;;8414981;28;20044;-81
2023/03/17 18:44:38;;;;;;;25.83;11.13;;;;;;;;;;8421708;28;20052;-80
2023/03/17 18:48:45;;;;;;;18.63;6.97;;;;;;;;;;8414412;28;20545;-84
2023/03/17 18:52:50;;;;;;;23.80;10.57;;;;;;;;;;8417959;28;20053;-80
2023/03/17 18:56:56;;;;;;;18.90;6.78;;;;;;;;;;8430625;28;20050;-79
2023/03/17 19:01:03;;;;;;;27.05;10.73;;;;;;;;;;8424898;28;20800;-79
2023/03/17 19:05:14;;;;;;;20.35;8.88;;;;;;;;;;8422528;28;20059;-79
2023/03/17 19:09:21;;;;;;;18.42;7.65;;;;;;;;;;8419265;28;20463;-80
2023/03/17 19:13:31;;;;;;;23.20;7.80;;;;;;;;;;8410632;28;20060;-79
2023/03/17 19:17:36;;;;;;;22.35;8.82;;;;;;;;;;8437752;28;20595;-80
2023/03/17 19:21:47;;;;;;;31.95;12.57;;;;;;;;;;8428662;28;20071;-80
2023/03/17 19:25:54;;;;;;;17.65;7.03;;;;;;;;;;8428287;28;20681;-81
2023/03/17 19:29:59;;;;;;;23.17;9.57;;;;;;;;;;8427646;28;20135;-81
2023/03/17 19:34:06;;;;;;;31.15;13.63;;;;;;;;;;8405797;28;20466;-80
2023/03/17 19:38:16;;;;;;;21.45;9.70;;;;;;;;;;8428009;28;20118;-80
2023/03/17 19:42:23;;;;;;;26.85;10.07;;;;;;;;;;8421457;28;20155;-80
2023/03/17 19:46:29;;;;;;;17.35;8.18;;;;;;;;;;8423633;28;20116;-80
2023/03/17 19:50:34;;;;;;;18.08;6.85;;;;;;;;;;8405834;28;20079;-80
2023/03/17 19:54:43;;;;;;;14.07;7.05;;;;;;;;;;8427558;28;20044;-83
2023/03/17 19:58:50;;;;;;;42.30;16.65;;;;;;;;;;8419512;28;20118;-83
2023/03/17 20:02:58;;;;;;;15.40;7.30;;;;;;;;;;8427128;28;20061;-80
2023/03/17 20:07:16;;;;;;;21.58;7.68;;;;;;;;;;8425592;28;20048;-82
2023/03/17 20:11:21;;;;;;;12.07;5.38;;;;;;;;;;8426120;28;20105;-81
2023/03/17 20:15:33;;;;;;;17.90;8.05;;;;;;;;;;8426404;28;20106;-83
2023/03/17 20:19:41;;;;;;;17.70;7.13;;;;;;;;;;8420447;28;20067;-79
2023/03/17 20:23:47;;;;;;;21.08;6.88;;;;;;;;;;8416434;28;20117;-80
2023/03/17 20:27:52;;;;;;;15.82;6.85;;;;;;;;;;8423203;28;20097;-85
2023/03/17 20:32:03;;;;;;;10.93;4.88;;;;;;;;;;8420224;28;20054;-84
2023/03/17 20:36:08;;;;;;;27.00;11.00;;;;;;;;;;8419276;28;20456;-82
2023/03/17 20:40:15;;;;;;;11.60;4.85;;;;;;;;;;8421947;28;20060;-82
2023/03/17 20:44:21;;;;;;;12.13;6.88;;;;;;;;;;8407846;28;20086;-81
2023/03/17 20:48:28;;;;;;;16.10;8.32;;;;;;;;;;8410299;28;20058;-82
2023/03/17 20:52:37;;;;;;;17.58;6.03;;;;;;;;;;8413001;28;20048;-80
2023/03/17 20:56:51;;;;;;;14.20;6.13;;;;;;;;;;8438679;28;20055;-80
2023/03/17 21:01:00;;;;;;;12.90;4.28;;;;;;;;;;8425223;28;20048;-80
2023/03/17 21:05:06;;;;;;;12.80;5.97;;;;;;;;;;8425015;28;20052;-80
2023/03/17 21:09:12;;;;;;;17.52;6.65;;;;;;;;;;8401826;28;20560;-82
2023/03/17 21:13:17;;;;;;;12.75;5.93;;;;;;;;;;8416448;28;20066;-84
2023/03/17 21:17:23;;;;;;;13.57;5.28;;;;;;;;;;8426214;28;20084;-81
2023/03/17 21:21:30;;;;;;;10.80;5.10;;;;;;;;;;8412292;28;20053;-81
2023/03/17 21:25:37;;;;;;;12.43;4.63;;;;;;;;;;8419609;28;20742;-81
2023/03/17 21:29:56;;;;;;;12.13;5.05;;;;;;;;;;8409971;28;20049;-83
2023/03/17 21:34:05;;;;;;;10.00;4.57;;;;;;;;;;8421986;28;20045;-80
2023/03/17 21:38:11;;;;;;;11.23;5.35;;;;;;;;;;8462671;28;20039;-81
2023/03/17 21:42:15;;;;;;;10.07;4.93;;;;;;;;;;8461953;28;20043;-81
2023/03/17 21:46:18;;;;;;;9.95;4.80;;;;;;;;;;8462504;28;20040;-81
2023/03/17 21:50:21;;;;;;;7.60;4.43;;;;;;;;;;8461928;28;20119;-81
2023/03/17 21:54:27;;;;;;;13.07;5.55;;;;;;;;;;8462223;28;20050;-84
2023/03/17 21:58:30;;;;;;;13.88;4.95;;;;;;;;;;8461792;28;20498;-84
2023/03/17 22:02:33;;;;;;;11.48;5.32;;;;;;;;;;8462401;28;20051;-83
2023/03/17 22:06:36;;;;;;;11.00;5.28;;;;;;;;;;8461836;28;20040;-83
2023/03/17 22:10:41;;;;;;;9.95;4.47;;;;;;;;;;8461942;28;20048;-84
2023/03/17 22:14:44;;;;;;;12.70;4.85;;;;;;;;;;8461688;28;20247;-85
2023/03/17 22:18:47;;;;;;;11.48;4.75;;;;;;;;;;8461909;28;20050;-84
2023/03/17 22:22:50;;;;;;;10.48;5.22;;;;;;;;;;8461855;28;20043;-83
2023/03/17 22:26:54;;;;;;;8.15;4.10;;;;;;;;;;8461553;28;20427;-82
2023/03/17 22:30:57;;;;;;;9.18;4.03;;;;;;;;;;8447808;28;20048;-81
2023/03/17 22:35:00;;;;;;;6.00;3.75;;;;;;;;;;8461852;28;20082;-86
2023/03/17 22:39:04;;;;;;;12.32;4.15;;;;;;;;;;8434975;28;20047;-80
2023/03/17 22:43:08;;;;;;;8.05;3.88;;;;;;;;;;8461559;28;20052;-83
2023/03/17 22:47:11;;;;;;;6.68;3.63;;;;;;;;;;8435455;28;20039;-82
2023/03/17 22:51:16;;;;;;;13.80;4.20;;;;;;;;;;8460173;28;20492;-84
2023/03/17 22:55:19;;;;;;;9.63;3.72;;;;;;;;;;8454112;28;20048;-84
2023/03/17 22:59:24;;;;;;;6.53;3.03;;;;;;;;;;8441525;28;20399;-81
2023/03/17 23:03:29;;;;;;;8.35;4.03;;;;;;;;;;8451428;28;20552;-86
2023/03/17 23:07:33;;;;;;;8.65;4.70;;;;;;;;;;8467373;28;20044;-82
2023/03/17 23:11:37;;;;;;;9.98;4.25;;;;;;;;;;8466848;28;20055;-84
2023/03/17 23:15:41;;;;;;;11.57;4.40;;;;;;;;;;8466884;28;20092;-82
2023/03/17 23:19:44;;;;;;;5.75;2.88;;;;;;;;;;8467422;28;20123;-83
2023/03/17 23:23:47;;;;;;;6.25;2.88;;;;;;;;;;8466518;28;20099;-81
2023/03/17 23:27:50;;;;;;;8.05;3.38;;;;;;;;;;8466556;28;20043;-83
2023/03/17 23:31:54;;;;;;;11.50;4.25;;;;;;;;;;8439417;28;20043;-81
2023/03/17 23:35:57;;;;;;;9.77;4.80;;;;;;;;;;8466349;28;20040;-85
2023/03/17 23:40:00;;;;;;;11.27;4.85;;;;;;;;;;8466246;28;20031;-82
2023/03/17 23:44:04;;;;;;;9.25;3.42;;;;;;;;;;8466488;28;20403;-80
2023/03/17 23:48:09;;;;;;;9.75;4.05;;;;;;;;;;8465694;28;20047;-82
2023/03/17 23:52:12;;;;;;;5.45;3.20;;;;;;;;;;8466106;28;20131;-79
2023/03/17 23:56:15;;;;;;;7.05;3.20;;;;;;;;;;8465712;28;20066;-80
